Time;durP1;ratioP1;P1;durP2;ratioP2;P2;SDS_P1;SDS_P2;PMS_P1;PMS_P2;Temp;Humidity;BMP_temperature;BMP_pressure;BME280_temperature;BME280_humidity;BME280_pressure;Samples;Min_cycle;Max_cycle;Signal;HPM_P1;HPM_P2
2024/03/04 00:00:16;;;;;;;7.82;4.22;;;8.50;99.90;;;;;;5032198;28;20025;-51
2024/03/04 00:02:42;;;;;;;10.77;4.38;;;8.60;99.90;;;;;;5033711;28;20518;-53
2024/03/04 00:05:08;;;;;;;16.38;5.10;;;8.60;99.90;;;;;;5033610;28;20029;-51
2024/03/04 00:07:35;;;;;;;15.75;3.85;;;8.60;99.90;;;;;;5033473;28;20029;-55
2024/03/04 00:10:02;;;;;;;15.63;4.97;;;8.70;99.90;;;;;;5033150;28;20040;-57
2024/03/04 00:12:28;;;;;;;13.30;3.97;;;8.60;99.90;;;;;;5034092;28;20382;-54
2024/03/04 00:14:55;;;;;;;10.43;3.63;;;8.70;99.90;;;;;;5032371;28;20432;-54
2024/03/04 00:17:20;;;;;;;11.52;4.07;;;8.60;99.90;;;;;;5045976;28;20036;-40
2024/03/04 00:19:47;;;;;;;12.80;4.70;;;8.60;99.90;;;;;;5053089;28;20394;-40
2024/03/04 00:22:13;;;;;;;8.40;4.30;;;8.50;99.90;;;;;;5053015;28;20542;-41
2024/03/04 00:24:39;;;;;;;15.60;4.38;;;8.50;99.90;;;;;;5052984;28;20041;-38
2024/03/04 00:27:05;;;;;;;9.30;4.43;;;8.40;99.90;;;;;;5052974;28;20535;-39
2024/03/04 00:29:31;;;;;;;10.23;3.28;;;8.40;99.90;;;;;;5051991;28;20112;-39
2024/03/04 00:31:56;;;;;;;11.98;4.35;;;8.50;99.90;;;;;;5049601;28;20179;-37
2024/03/04 00:34:22;;;;;;;9.98;3.17;;;8.50;99.90;;;;;;5032916;28;20367;-40
2024/03/04 00:36:48;;;;;;;11.15;3.47;;;8.40;99.90;;;;;;5033189;28;20030;-37
2024/03/04 00:39:14;;;;;;;14.38;4.32;;;8.50;99.90;;;;;;5032886;28;20095;-38
2024/03/04 00:41:40;;;;;;;5.38;3.03;;;8.50;99.90;;;;;;5032787;28;20037;-40
2024/03/04 00:44:06;;;;;;;9.75;2.90;;;8.40;99.90;;;;;;5033077;28;20030;-39
2024/03/04 00:46:32;;;;;;;8.30;2.97;;;8.40;99.90;;;;;;5033322;28;20087;-39
2024/03/04 00:48:57;;;;;;;7.53;2.65;;;8.50;99.90;;;;;;5032931;28;20537;-42
2024/03/04 00:51:23;;;;;;;15.25;3.28;;;8.40;99.90;;;;;;5032719;28;20367;-39
2024/03/04 00:53:49;;;;;;;7.25;2.75;;;8.50;99.90;;;;;;5032696;28;20038;-41
2024/03/04 00:56:15;;;;;;;6.15;2.17;;;8.50;99.90;;;;;;5032707;28;20076;-40
2024/03/04 00:58:41;;;;;;;15.10;3.70;;;8.40;99.90;;;;;;5032916;28;20049;-40
2024/03/04 01:01:07;;;;;;;6.28;2.60;;;8.40;99.90;;;;;;5032908;28;20470;-39
2024/03/04 01:03:33;;;;;;;17.65;2.55;;;8.50;99.90;;;;;;5032098;28;20041;-38
2024/03/04 01:05:59;;;;;;;7.35;2.60;;;8.40;99.90;;;;;;5033655;28;20068;-38
2024/03/04 01:08:26;;;;;;;5.28;2.63;;;8.40;99.90;;;;;;5032428;28;20482;-43
2024/03/04 01:10:53;;;;;;;6.60;2.60;;;8.40;99.90;;;;;;5032820;28;20048;-39
2024/03/04 01:13:19;;;;;;;5.57;2.70;;;8.40;99.90;;;;;;5045528;28;20500;-43
2024/03/04 01:15:47;;;;;;;9.65;2.58;;;8.40;99.90;;;;;;5052771;28;20501;-53
2024/03/04 01:18:14;;;;;;;5.07;2.65;;;8.40;99.90;;;;;;5052716;28;20031;-53
2024/03/04 01:20:46;;;;;;;9.05;2.28;;;8.40;99.90;;;;;;5044387;28;20533;-55
2024/03/04 01:23:13;;;;;;;9.45;2.45;;;8.40;99.90;;;;;;5032421;28;20036;-51
2024/03/04 01:25:42;;;;;;;7.93;2.92;;;8.40;99.90;;;;;;5031110;28;20037;-40
2024/03/04 01:28:08;;;;;;;7.03;2.78;;;8.40;99.90;;;;;;5032324;28;20104;-38
2024/03/04 01:30:34;;;;;;;6.40;2.75;;;8.50;99.90;;;;;;5032347;28;20478;-38
2024/03/04 01:33:02;;;;;;;9.07;3.00;;;8.50;99.90;;;;;;5032197;28;20144;-39
2024/03/04 01:35:27;;;;;;;10.15;3.15;;;8.40;99.90;;;;;;5032646;28;20550;-39
2024/03/04 01:37:53;;;;;;;15.88;3.95;;;8.40;99.90;;;;;;5032834;28;20049;-38
2024/03/04 01:40:20;;;;;;;10.43;2.97;;;8.50;99.90;;;;;;5032280;28;20434;-40
2024/03/04 01:42:45;;;;;;;17.10;3.30;;;8.40;99.90;;;;;;5032306;28;20083;-39
2024/03/04 01:45:31;;;;;;;11.63;3.40;;;8.40;99.90;;;;;;5053587;28;20025;-54
2024/03/04 01:48:00;;;;;;;8.68;3.60;;;8.40;99.90;;;;;;5054594;28;20078;-56
2024/03/04 01:50:29;;;;;;;12.73;2.78;;;8.40;99.90;;;;;;5056074;28;20025;-54
2024/03/04 01:52:56;;;;;;;6.60;3.28;;;8.50;99.90;;;;;;5055895;28;20095;-59
2024/03/04 01:55:23;;;;;;;12.50;3.00;;;8.40;99.90;;;;;;5055021;28;20385;-55
2024/03/04 01:57:51;;;;;;;11.35;3.80;;;8.40;99.90;;;;;;5054524;28;20067;-61
2024/03/04 02:00:19;;;;;;;11.60;3.55;;;8.40;99.90;;;;;;5054517;28;20013;-38
2024/03/04 02:02:44;;;;;;;;;;;8.40;99.90;;;;;;5055841;28;20043;-40
2024/03/04 02:05:11;;;;;;;16.48;3.28;;;8.30;99.90;;;;;;5055084;28;19905;-39
2024/03/04 02:07:38;;;;;;;14.38;4.25;;;8.40;99.90;;;;;;5054717;28;20539;-38
2024/03/04 02:10:07;;;;;;;14.02;4.30;;;8.40;99.90;;;;;;5055314;28;20035;-41
2024/03/04 02:12:37;;;;;;;31.63;3.88;;;8.40;99.90;;;;;;5047760;28;20025;-38
2024/03/04 02:15:03;;;;;;;9.75;3.10;;;8.40;99.90;;;;;;5035737;28;20536;-39
2024/03/04 02:17:30;;;;;;;11.82;3.50;;;8.40;99.90;;;;;;5035455;28;20025;-39
2024/03/04 02:20:03;;;;;;;14.38;3.60;;;8.40;99.90;;;;;;5035467;28;20529;-38
2024/03/04 02:22:29;;;;;;;9.18;3.50;;;8.40;99.90;;;;;;5035421;28;20109;-55
2024/03/04 02:24:55;;;;;;;10.05;3.00;;;8.30;99.90;;;;;;5035367;28;20117;-52
2024/03/04 02:27:23;;;;;;;7.65;2.90;;;8.30;99.90;;;;;;5035630;28;20506;-38
2024/03/04 02:29:49;;;;;;;4.80;2.83;;;8.30;99.90;;;;;;5035661;28;20083;-43
2024/03/04 02:32:19;;;;;;;6.28;2.92;;;8.30;99.90;;;;;;5035057;28;20045;-38
2024/03/04 02:34:45;;;;;;;9.02;2.30;;;8.30;99.90;;;;;;5035411;28;20021;-39
2024/03/04 02:37:12;;;;;;;9.20;2.25;;;8.30;99.90;;;;;;5035333;28;20529;-43
2024/03/04 02:39:39;;;;;;;7.65;2.55;;;8.20;99.90;;;;;;5035135;28;20021;-55
2024/03/04 02:42:05;;;;;;;4.18;2.38;;;8.20;99.90;;;;;;5046756;28;20021;-53
2024/03/04 02:44:31;;;;;;;16.80;2.50;;;8.10;99.90;;;;;;5055180;28;20021;-55
2024/03/04 02:46:57;;;;;;;3.60;2.22;;;8.00;99.90;;;;;;5053705;28;20021;-54
2024/03/04 02:49:23;;;;;;;7.25;2.22;;;8.00;99.90;;;;;;5034744;28;20052;-53
2024/03/04 02:51:50;;;;;;;14.77;2.80;;;8.00;99.90;;;;;;5035125;28;20026;-53
2024/03/04 02:54:16;;;;;;;9.48;2.33;;;8.00;99.90;;;;;;5034774;28;20022;-54
2024/03/04 02:56:42;;;;;;;9.38;2.25;;;8.00;99.90;;;;;;5034646;28;20389;-54
2024/03/04 02:59:08;;;;;;;6.03;1.85;;;8.00;99.90;;;;;;5034657;28;20109;-51
2024/03/04 03:01:34;;;;;;;12.15;1.95;;;8.00;99.90;;;;;;5034617;28;20108;-54
2024/03/04 03:03:59;;;;;;;8.07;1.55;;;8.00;99.90;;;;;;5035098;28;20029;-55
2024/03/04 03:06:28;;;;;;;10.57;1.25;;;8.10;99.90;;;;;;5034601;28;20379;-54
2024/03/04 03:08:54;;;;;;;3.30;1.17;;;8.10;99.90;;;;;;5034427;28;20474;-53
2024/03/04 03:11:20;;;;;;;10.05;2.20;;;8.00;99.90;;;;;;5034752;28;20090;-50
2024/03/04 03:13:46;;;;;;;4.65;1.20;;;7.90;99.90;;;;;;5033078;28;20104;-53
2024/03/04 03:16:21;;;;;;;1.83;1.35;;;7.90;99.90;;;;;;5034660;28;20056;-54
2024/03/04 03:18:48;;;;;;;9.48;1.63;;;7.90;99.90;;;;;;5034836;28;20112;-40
2024/03/04 03:21:14;;;;;;;3.83;1.60;;;7.90;99.90;;;;;;5034276;28;20109;-38
2024/03/04 03:23:43;;;;;;;1.80;1.25;;;7.90;99.90;;;;;;5034199;28;20158;-37
2024/03/04 03:26:10;;;;;;;6.60;2.05;;;7.90;99.90;;;;;;5034482;28;20021;-57
2024/03/04 03:28:43;;;;;;;4.38;1.15;;;7.90;99.90;;;;;;5034042;28;20079;-54
2024/03/04 03:31:09;;;;;;;4.43;1.42;;;7.80;99.90;;;;;;5033990;28;20037;-53
2024/03/04 03:33:36;;;;;;;2.95;1.60;;;7.90;99.90;;;;;;5034316;28;20470;-54
2024/03/04 03:36:03;;;;;;;5.65;2.33;;;7.90;99.90;;;;;;5034665;28;20033;-41
2024/03/04 03:38:29;;;;;;;6.00;1.17;;;7.90;99.90;;;;;;5033910;28;20044;-38
2024/03/04 03:40:55;;;;;;;4.63;1.38;;;7.90;99.90;;;;;;5050719;28;20501;-37
2024/03/04 03:43:21;;;;;;;3.53;1.55;;;7.90;99.90;;;;;;5053776;28;20029;-38
2024/03/04 03:45:47;;;;;;;3.70;1.80;;;7.90;99.90;;;;;;5053622;28;20017;-54
2024/03/04 03:48:16;;;;;;;5.65;1.13;;;7.90;99.90;;;;;;5042651;28;20032;-53
2024/03/04 03:50:42;;;;;;;5.07;1.40;;;7.90;99.90;;;;;;5033693;28;20036;-54
2024/03/04 03:53:08;;;;;;;2.17;1.20;;;7.90;99.90;;;;;;5036921;28;20075;-53
2024/03/04 03:55:33;;;;;;;6.72;1.55;;;7.90;99.90;;;;;;5053799;28;20385;-55
2024/03/04 03:58:00;;;;;;;2.83;1.77;;;7.90;99.90;;;;;;5053491;28;20032;-54
2024/03/04 04:00:26;;;;;;;6.07;1.95;;;7.90;99.90;;;;;;5053712;28;20112;-54
2024/03/04 04:02:52;;;;;;;5.68;1.98;;;8.00;99.90;;;;;;5053639;28;20099;-54
2024/03/04 04:05:18;;;;;;;5.20;1.90;;;7.90;99.90;;;;;;5053387;28;20386;-53
2024/03/04 04:07:43;;;;;;;3.80;2.10;;;7.90;99.90;;;;;;5053080;28;20017;-53
2024/03/04 04:10:09;;;;;;;2.45;1.63;;;7.90;99.90;;;;;;5052345;28;20029;-40
2024/03/04 04:12:35;;;;;;;5.25;2.28;;;7.90;99.90;;;;;;5053540;28;20013;-39
2024/03/04 04:15:01;;;;;;;7.28;1.77;;;7.90;99.90;;;;;;5053490;28;20040;-39
2024/03/04 04:17:26;;;;;;;10.40;2.03;;;7.90;99.90;;;;;;5053164;28;20408;-39
2024/03/04 04:19:53;;;;;;;3.15;1.60;;;7.90;99.90;;;;;;5053029;28;20021;-38
2024/03/04 04:22:18;;;;;;;14.05;2.47;;;7.90;99.90;;;;;;5053307;28;20052;-42
2024/03/04 04:24:45;;;;;;;7.97;1.48;;;7.90;99.90;;;;;;5053013;28;20021;-39
2024/03/04 04:27:10;;;;;;;4.22;1.63;;;7.90;99.90;;;;;;5052161;28;20016;-40
2024/03/04 04:29:36;;;;;;;1.80;1.45;;;7.90;99.90;;;;;;5052878;28;20036;-41
2024/03/04 04:32:02;;;;;;;1.58;0.90;;;7.90;99.90;;;;;;5052864;28;20040;-39
2024/03/04 04:34:28;;;;;;;7.85;3.38;;;8.00;99.90;;;;;;5052893;28;20099;-39
2024/03/04 04:36:54;;;;;;;5.45;1.17;;;7.90;99.90;;;;;;5051198;28;20053;-40
2024/03/04 04:39:19;;;;;;;4.70;0.80;;;7.90;99.90;;;;;;5052724;28;20024;-38
2024/03/04 04:41:45;;;;;;;1.27;0.80;;;8.00;99.90;;;;;;5052771;28;20393;-39
2024/03/04 04:44:11;;;;;;;4.25;0.90;;;7.90;99.90;;;;;;5048894;28;20025;-37
2024/03/04 04:46:40;;;;;;;2.17;0.57;;;8.00;99.90;;;;;;5032881;28;20021;-38
2024/03/04 04:49:06;;;;;;;7.90;1.38;;;8.10;99.90;;;;;;5032543;28;20033;-38
2024/03/04 04:51:32;;;;;;;5.30;0.70;;;8.10;99.90;;;;;;5032826;28;20394;-40
2024/03/04 04:53:58;;;;;;;3.45;0.70;;;8.00;99.90;;;;;;5032983;28;20075;-38
2024/03/04 04:56:24;;;;;;;7.00;1.60;;;8.00;99.90;;;;;;5032695;28;20018;-40
2024/03/04 04:58:50;;;;;;;1.33;0.73;;;8.00;99.90;;;;;;5032644;28;20033;-39
2024/03/04 05:01:26;;;;;;;4.38;1.23;;;8.00;99.90;;;;;;5037152;28;20029;-40
2024/03/04 05:03:52;;;;;;;2.13;0.98;;;7.90;99.90;;;;;;5052508;28;20025;-41
2024/03/04 05:06:21;;;;;;;4.85;0.65;;;8.00;99.90;;;;;;5051354;28;20029;-54
2024/03/04 05:08:50;;;;;;;1.60;0.90;;;7.90;99.90;;;;;;5052437;28;20032;-38
2024/03/04 05:11:16;;;;;;;5.55;1.15;;;7.90;99.90;;;;;;5052715;28;20095;-38
2024/03/04 05:13:42;;;;;;;7.40;0.90;;;8.00;99.90;;;;;;5051159;28;20417;-40
2024/03/04 05:16:09;;;;;;;2.80;0.47;;;8.00;99.90;;;;;;5052498;28;20143;-40
2024/03/04 05:18:37;;;;;;;11.75;0.82;;;7.90;99.90;;;;;;5050533;28;20029;-38
2024/03/04 05:21:04;;;;;;;1.58;0.75;;;7.90;99.90;;;;;;5056534;28;20017;-43
2024/03/04 05:23:31;;;;;;;1.65;0.60;;;7.80;99.90;;;;;;5056423;28;20029;-43
2024/03/04 05:25:57;;;;;;;3.97;0.50;;;7.90;99.90;;;;;;5056688;28;20465;-40
2024/03/04 05:28:23;;;;;;;3.65;1.17;;;7.80;99.90;;;;;;5056193;28;20017;-39
2024/03/04 05:30:50;;;;;;;15.40;1.05;;;7.80;99.90;;;;;;5056339;28;20025;-39
2024/03/04 05:33:16;;;;;;;0.80;0.60;;;7.80;99.90;;;;;;5051999;28;20090;-39
2024/03/04 05:35:42;;;;;;;3.05;0.82;;;7.80;99.90;;;;;;5036843;28;20030;-39
2024/03/04 05:38:08;;;;;;;5.88;0.70;;;7.80;99.90;;;;;;5036500;28;20500;-39
2024/03/04 05:40:34;;;;;;;1.73;0.90;;;7.90;99.90;;;;;;5050096;28;20096;-41
2024/03/04 05:42:59;;;;;;;12.50;2.33;;;7.90;99.90;;;;;;5056065;28;20025;-42
2024/03/04 05:45:25;;;;;;;5.22;0.77;;;7.80;99.90;;;;;;5056032;28;20036;-38
2024/03/04 05:47:51;;;;;;;1.92;0.52;;;7.80;99.90;;;;;;5048024;28;20044;-41
2024/03/04 05:50:17;;;;;;;4.10;1.30;;;7.70;99.90;;;;;;5035875;28;20077;-41
2024/03/04 05:52:46;;;;;;;6.03;0.63;;;7.70;99.90;;;;;;5044366;28;20022;-44
2024/03/04 05:55:16;;;;;;;2.70;1.15;;;7.80;99.90;;;;;;5055818;28;20025;-38
2024/03/04 05:57:42;;;;;;;7.88;1.20;;;7.80;99.90;;;;;;5056138;28;20029;-37
2024/03/04 06:00:14;;;;;;;6.93;0.95;;;7.80;99.90;;;;;;5055756;28;20048;-40
2024/03/04 06:02:43;;;;;;;3.28;0.82;;;7.90;99.90;;;;;;5055671;28;20382;-39
2024/03/04 06:05:13;;;;;;;2.67;0.82;;;7.90;99.90;;;;;;5055676;28;20485;-38
2024/03/04 06:07:40;;;;;;;7.05;0.73;;;7.90;99.90;;;;;;5055672;28;20025;-41
2024/03/04 06:10:06;;;;;;;1.30;0.55;;;7.90;99.90;;;;;;5054628;28;20039;-39
2024/03/04 06:12:32;;;;;;;0.73;0.70;;;7.90;99.90;;;;;;5055491;28;20021;-41
2024/03/04 06:14:58;;;;;;;3.42;0.90;;;7.90;99.90;;;;;;5055501;28;20032;-38
2024/03/04 06:17:24;;;;;;;3.05;0.88;;;7.90;99.90;;;;;;5054123;28;20020;-40
2024/03/04 06:19:49;;;;;;;1.00;0.68;;;7.90;99.90;;;;;;5055334;28;20025;-37
2024/03/04 06:22:15;;;;;;;6.65;0.55;;;7.90;99.90;;;;;;5055365;28;20021;-38
2024/03/04 06:24:41;;;;;;;1.33;0.75;;;8.00;99.90;;;;;;5055369;28;20078;-39
2024/03/04 06:27:07;;;;;;;4.05;0.60;;;8.00;99.90;;;;;;5053224;28;20509;-40
2024/03/04 06:29:34;;;;;;;1.98;0.60;;;8.00;99.90;;;;;;5054572;28;20114;-41
2024/03/04 06:32:00;;;;;;;1.00;0.70;;;8.00;99.90;;;;;;5043654;28;20053;-40
2024/03/04 06:34:26;;;;;;;6.70;0.95;;;8.00;99.90;;;;;;5035565;28;20010;-39
2024/03/04 06:36:52;;;;;;;6.50;0.65;;;8.10;99.90;;;;;;5035122;28;20394;-38
2024/03/04 06:39:20;;;;;;;1.23;0.50;;;8.10;99.90;;;;;;5038592;28;20070;-42
2024/03/04 06:41:47;;;;;;;3.17;0.57;;;8.10;99.90;;;;;;5054950;28;20074;-39
2024/03/04 06:44:12;;;;;;;2.38;0.50;;;8.10;99.90;;;;;;5042500;28;20026;-38
2024/03/04 06:46:38;;;;;;;1.35;1.00;;;8.00;99.90;;;;;;5034999;28;20029;-38
2024/03/04 06:49:04;;;;;;;3.92;0.68;;;8.00;99.90;;;;;;5034611;28;20033;-39
2024/03/04 06:51:32;;;;;;;0.60;0.43;;;7.90;99.90;;;;;;5035160;28;20014;-39
2024/03/04 06:53:58;;;;;;;1.63;0.55;;;7.90;99.90;;;;;;5034841;28;20026;-39
2024/03/04 06:56:24;;;;;;;1.05;0.65;;;8.00;99.90;;;;;;5034828;28;20021;-39
2024/03/04 06:58:49;;;;;;;2.75;0.65;;;8.10;99.90;;;;;;5035016;28;20028;-38
2024/03/04 07:01:17;;;;;;;2.75;0.50;;;8.10;99.90;;;;;;5046044;28;20021;-39
2024/03/04 07:03:43;;;;;;;2.17;0.60;;;8.20;99.90;;;;;;5054557;28;20029;-39
2024/03/04 07:06:13;;;;;;;3.13;0.50;;;8.20;99.90;;;;;;5054801;28;20031;-39
2024/03/04 07:08:40;;;;;;;5.97;0.60;;;8.20;99.90;;;;;;5054557;28;20025;-39
2024/03/04 07:11:06;;;;;;;2.83;0.50;;;8.30;99.90;;;;;;5054471;28;20705;-38
2024/03/04 07:13:32;;;;;;;8.52;1.55;;;8.30;99.90;;;;;;5054375;28;20021;-39
2024/03/04 07:15:58;;;;;;;2.63;0.80;;;8.30;99.90;;;;;;5053084;28;20466;-38
2024/03/04 07:18:24;;;;;;;1.27;0.70;;;8.30;99.90;;;;;;5053747;28;20477;-40
2024/03/04 07:20:50;;;;;;;5.30;1.48;;;8.40;99.90;;;;;;5054517;28;20029;-40
2024/03/04 07:23:16;;;;;;;3.92;1.05;;;8.40;99.90;;;;;;5052909;28;20422;-44
2024/03/04 07:25:41;;;;;;;1.38;0.57;;;8.30;99.90;;;;;;5054191;28;20083;-39
2024/03/04 07:28:07;;;;;;;1.88;0.75;;;8.40;99.90;;;;;;5053943;28;20409;-40
2024/03/04 07:30:33;;;;;;;7.15;1.15;;;8.50;99.90;;;;;;5037406;28;20096;-41
2024/03/04 07:32:59;;;;;;;2.70;0.70;;;8.60;99.90;;;;;;5033828;28;20045;-38
2024/03/04 07:35:24;;;;;;;3.30;0.73;;;8.70;99.90;;;;;;5034595;28;20030;-53
2024/03/04 07:37:50;;;;;;;2.67;0.80;;;8.70;99.90;;;;;;5034040;28;20059;-54
2024/03/04 07:40:16;;;;;;;4.15;0.63;;;8.70;99.90;;;;;;5045376;28;20029;-54
2024/03/04 07:42:41;;;;;;;5.68;2.22;;;8.70;99.90;;;;;;5053294;28;20413;-53
2024/03/04 07:45:09;;;;;;;4.18;1.23;;;8.70;99.90;;;;;;5053763;28;20029;-55
2024/03/04 07:47:35;;;;;;;7.47;1.15;;;8.70;99.90;;;;;;5047697;28;20025;-54
2024/03/04 07:50:01;;;;;;;5.82;0.90;;;8.80;99.90;;;;;;5033829;28;20390;-54
2024/03/04 07:52:27;;;;;;;7.95;1.05;;;8.80;99.90;;;;;;5048032;28;20025;-51
2024/03/04 07:54:52;;;;;;;1.17;0.80;;;8.80;99.90;;;;;;5053394;28;20109;-56
2024/03/04 07:57:18;;;;;;;5.88;1.40;;;8.90;99.90;;;;;;5053593;28;20478;-54
2024/03/04 07:59:44;;;;;;;4.35;0.73;;;8.90;99.90;;;;;;5053345;28;20029;-53
2024/03/04 08:02:09;;;;;;;3.25;1.00;;;9.00;99.90;;;;;;5050427;28;20441;-54
2024/03/04 08:04:35;;;;;;;3.28;0.80;;;9.00;99.90;;;;;;5053088;28;20024;-56
2024/03/04 08:07:01;;;;;;;7.82;0.70;;;9.10;99.90;;;;;;5037622;28;20032;-54
2024/03/04 08:09:26;;;;;;;8.38;1.27;;;9.10;99.90;;;;;;5034065;28;20489;-53
2024/03/04 08:11:52;;;;;;;3.30;0.88;;;9.00;99.90;;;;;;5031769;28;20022;-38
2024/03/04 08:14:18;;;;;;;3.08;0.90;;;9.00;99.90;;;;;;5033256;28;20060;-39
2024/03/04 08:16:44;;;;;;;8.93;0.95;;;9.10;99.90;;;;;;5033263;28;20021;-38
2024/03/04 08:19:11;;;;;;;2.45;0.85;;;9.10;99.90;;;;;;5033004;28;20026;-39
2024/03/04 08:21:37;;;;;;;0.77;0.55;;;9.10;99.90;;;;;;5033211;28;20021;-40
2024/03/04 08:24:03;;;;;;;2.55;0.40;;;9.20;99.90;;;;;;5031928;28;20034;-41
2024/03/04 08:26:29;;;;;;;2.25;0.88;;;9.40;99.90;;;;;;5033142;28;20509;-37
2024/03/04 08:28:58;;;;;;;7.55;1.15;;;9.50;99.90;;;;;;5032974;28;20068;-40
2024/03/04 08:31:23;;;;;;;2.20;0.50;;;9.50;99.90;;;;;;5032926;28;20519;-40
2024/03/04 08:33:49;;;;;;;5.07;0.60;;;9.60;99.90;;;;;;5033120;28;20025;-38
2024/03/04 08:36:15;;;;;;;1.63;0.70;;;9.60;99.90;;;;;;5032909;28;20494;-45
2024/03/04 08:38:41;;;;;;;0.55;0.45;;;9.80;99.90;;;;;;5032892;28;20033;-38
2024/03/04 08:41:06;;;;;;;9.52;0.82;;;9.80;99.90;;;;;;5032910;28;20375;-38
2024/03/04 08:43:32;;;;;;;7.50;0.63;;;9.60;99.90;;;;;;5032856;28;20433;-41
2024/03/04 08:45:58;;;;;;;4.13;0.50;;;9.60;99.90;;;;;;5033076;28;20032;-40
2024/03/04 08:48:24;;;;;;;0.47;0.30;;;9.70;99.90;;;;;;5032488;28;20498;-44
2024/03/04 08:50:49;;;;;;;5.47;1.27;;;9.70;99.90;;;;;;5032816;28;20030;-39
2024/03/04 08:53:15;;;;;;;4.32;1.15;;;9.70;99.90;;;;;;5032572;28;20021;-41
2024/03/04 08:55:41;;;;;;;1.55;0.65;;;9.70;99.90;;;;;;5031364;28;20029;-42
2024/03/04 08:58:06;;;;;;;3.40;0.68;;;9.60;99.90;;;;;;5032753;28;20387;-40
2024/03/04 09:00:32;;;;;;;6.03;1.00;;;9.60;99.90;;;;;;5032695;28;20033;-43
2024/03/04 09:02:58;;;;;;;1.00;0.80;;;9.60;99.90;;;;;;5032672;28;20021;-39
2024/03/04 09:05:23;;;;;;;2.25;0.75;;;9.60;99.90;;;;;;5032926;28;20013;-41
2024/03/04 09:07:49;;;;;;;3.72;0.93;;;9.50;99.90;;;;;;5032549;28;20053;-39
2024/03/04 09:10:18;;;;;;;2.58;0.98;;;9.50;99.90;;;;;;5032717;28;20120;-38
2024/03/04 09:12:44;;;;;;;2.38;1.33;;;9.60;99.90;;;;;;5032803;28;20474;-39
2024/03/04 09:15:12;;;;;;;4.15;1.23;;;9.60;99.90;;;;;;5032813;28;20018;-42
2024/03/04 09:17:39;;;;;;;2.80;0.85;;;9.70;99.90;;;;;;5032865;28;20165;-39
2024/03/04 09:20:06;;;;;;;11.95;1.85;;;9.70;99.90;;;;;;5032517;28;20112;-38
2024/03/04 09:22:31;;;;;;;2.25;0.93;;;9.70;99.90;;;;;;5032479;28;20033;-40
2024/03/04 09:24:57;;;;;;;1.33;1.23;;;9.80;99.90;;;;;;5032512;28;20029;-40
2024/03/04 09:27:23;;;;;;;8.52;1.30;;;10.00;99.90;;;;;;5032716;28;20021;-55
2024/03/04 09:29:48;;;;;;;4.80;1.17;;;9.90;99.90;;;;;;5032331;28;20036;-55
2024/03/04 09:32:14;;;;;;;3.88;1.23;;;9.90;99.90;;;;;;5032090;28;20053;-58
2024/03/04 09:34:40;;;;;;;1.98;1.10;;;9.80;99.90;;;;;;5032333;28;20421;-55
2024/03/04 09:37:05;;;;;;;4.03;1.23;;;10.00;99.90;;;;;;5032283;28;20413;-55
2024/03/04 09:39:32;;;;;;;9.77;0.82;;;10.10;99.90;;;;;;5032615;28;20022;-54
2024/03/04 09:41:58;;;;;;;1.92;1.20;;;10.20;99.90;;;;;;5032308;28;20542;-55
2024/03/04 09:44:27;;;;;;;1.85;1.35;;;10.10;99.90;;;;;;5032288;28;20025;-53
2024/03/04 09:46:55;;;;;;;0.50;0.50;;;10.10;99.90;;;;;;5030952;28;20414;-52
2024/03/04 09:49:23;;;;;;;;;;;10.10;99.90;;;;;;5032753;28;20030;-54
2024/03/04 09:51:50;;;;;;;0.90;0.40;;;10.10;99.90;;;;;;5032508;28;19913;-53
2024/03/04 09:54:18;;;;;;;2.63;1.10;;;10.30;99.90;;;;;;5032516;28;20029;-55
2024/03/04 09:57:02;;;;;;;1.45;0.43;;;10.30;99.90;;;;;;5032225;28;20033;-52
2024/03/04 09:59:30;;;;;;;1.88;0.98;;;10.30;99.90;;;;;;5032245;28;20541;-54
2024/03/04 10:01:58;;;;;;;2.50;1.10;;;10.40;99.90;;;;;;5030915;28;20379;-55
2024/03/04 10:04:25;;;;;;;1.10;1.10;;;10.30;99.90;;;;;;5032134;28;20477;-55
2024/03/04 10:06:51;;;;;;;4.13;1.23;;;10.30;99.90;;;;;;5035802;28;20044;-54
2024/03/04 10:09:17;;;;;;;5.20;1.25;;;10.40;99.90;;;;;;5035903;28;20473;-55
2024/03/04 10:11:43;;;;;;;4.07;1.33;;;10.50;99.90;;;;;;5035629;28;20022;-55
2024/03/04 10:14:09;;;;;;;1.48;1.00;;;10.70;99.90;;;;;;5035571;28;20505;-55
2024/03/04 10:16:38;;;;;;;4.00;0.98;;;10.60;99.90;;;;;;5035592;28;20408;-54
2024/03/04 10:19:04;;;;;;;3.13;1.00;;;10.70;99.90;;;;;;5035524;28;20398;-55
2024/03/04 10:21:33;;;;;;;5.00;1.38;;;10.60;99.90;;;;;;5035400;28;20025;-54
2024/03/04 10:24:07;;;;;;;3.63;1.17;;;10.60;99.90;;;;;;5035593;28;20029;-55
2024/03/04 10:26:46;;;;;;;2.47;1.33;;;10.60;99.90;;;;;;5035654;28;20135;-55
2024/03/04 10:29:15;;;;;;;1.60;1.13;;;10.70;99.90;;;;;;5035293;28;20033;-55
2024/03/04 10:31:51;;;;;;;6.53;1.77;;;10.60;99.90;;;;;;5035102;28;20123;-55
2024/03/04 10:34:17;;;;;;;2.20;1.10;;;10.80;99.90;;;;;;5033997;28;20029;-53
2024/03/04 10:36:51;;;;;;;5.75;2.33;;;10.50;99.90;;;;;;5035275;28;20044;-55
2024/03/04 10:39:16;;;;;;;6.63;1.90;;;10.60;99.90;;;;;;5035150;28;20470;-55
2024/03/04 10:41:46;;;;;;;4.55;1.73;;;10.70;99.90;;;;;;5033709;28;20052;-55
2024/03/04 10:44:25;;;;;;;3.72;1.70;;;10.90;99.90;;;;;;5035037;28;20071;-54
2024/03/04 10:46:54;;;;;;;3.25;1.70;;;10.90;99.90;;;;;;5035252;28;20029;-54
2024/03/04 10:49:23;;;;;;;2.38;1.52;;;10.80;99.90;;;;;;5034759;28;20528;-55
2024/03/04 10:51:49;;;;;;;2.05;1.42;;;10.90;99.90;;;;;;5035218;28;20133;-54
2024/03/04 10:54:22;;;;;;;4.60;1.17;;;10.90;99.90;;;;;;5034862;28;20509;-54
2024/03/04 10:57:04;;;;;;;1.45;0.60;;;11.00;99.90;;;;;;5035173;28;20033;-53
2024/03/04 10:59:39;;;;;;;1.38;0.70;;;11.10;99.90;;;;;;5033535;28;20038;-55
2024/03/04 11:02:43;;;;;;;3.85;1.00;;;11.00;99.90;;;;;;5034644;28;20160;-54
2024/03/04 11:05:11;;;;;;;1.17;0.57;;;11.00;99.90;;;;;;5017946;28;20137;-46
2024/03/04 11:07:42;;;;;;;0.73;0.60;;;11.00;99.90;;;;;;5034782;28;20025;-38
2024/03/04 11:10:33;;;;;;;0.82;0.50;;;10.90;99.90;;;;;;5034434;28;20108;-39
2024/03/04 11:13:20;;;;;;;1.20;0.68;;;10.90;99.90;;;;;;5034558;28;20083;-55
2024/03/04 11:15:52;;;;;;;2.70;1.13;;;11.00;99.90;;;;;;5032816;28;20478;-39
2024/03/04 11:18:47;;;;;;;4.97;0.65;;;11.00;99.90;;;;;;5033675;28;20053;-37
2024/03/04 11:21:14;;;;;;;5.18;0.77;;;11.10;99.90;;;;;;5034327;28;20033;-38
2024/03/04 11:23:41;;;;;;;1.33;0.90;;;11.30;99.90;;;;;;5034227;28;20025;-38
2024/03/04 11:26:09;;;;;;;8.57;0.82;;;11.20;99.90;;;;;;5034125;28;20021;-37
2024/03/04 11:28:36;;;;;;;0.68;0.57;;;11.20;99.90;;;;;;5034339;28;20021;-39
2024/03/04 11:31:03;;;;;;;0.70;0.60;;;11.40;99.90;;;;;;5034094;28;20393;-38
2024/03/04 11:33:42;;;;;;;2.03;0.57;;;11.50;99.90;;;;;;5032725;28;20049;-38
2024/03/04 11:36:09;;;;;;;2.35;0.73;;;11.50;99.90;;;;;;5034245;28;20021;-39
2024/03/04 11:38:44;;;;;;;0.63;0.63;;;11.50;99.90;;;;;;5034284;28;20390;-37
2024/03/04 11:41:30;;;;;;;0.77;0.50;;;11.70;99.90;;;;;;5033958;28;20387;-39
2024/03/04 11:43:56;;;;;;;2.78;0.85;;;11.70;99.90;;;;;;5033654;28;20038;-44
2024/03/04 11:46:22;;;;;;;3.42;1.10;;;11.80;99.90;;;;;;5034079;28;20033;-48
2024/03/04 11:48:47;;;;;;;1.27;0.98;;;11.70;99.90;;;;;;5049454;28;20071;-54
2024/03/04 11:51:13;;;;;;;0.70;0.70;;;11.70;99.90;;;;;;5053963;28;20017;-53
2024/03/04 11:53:43;;;;;;;1.27;0.70;;;11.70;99.90;;;;;;5053636;28;20556;-49
2024/03/04 11:56:09;;;;;;;1.35;1.10;;;11.90;99.90;;;;;;5053610;28;20029;-53
2024/03/04 11:58:37;;;;;;;4.30;0.70;;;12.00;99.90;;;;;;5053534;28;20136;-53
2024/03/04 12:01:03;;;;;;;1.58;1.02;;;12.20;99.90;;;;;;5036216;28;20124;-50
2024/03/04 12:03:29;;;;;;;0.93;0.90;;;12.20;99.90;;;;;;5053659;28;20112;-52
2024/03/04 12:05:55;;;;;;;0.95;0.95;;;12.20;99.90;;;;;;5053408;28;20031;-54
2024/03/04 12:08:21;;;;;;;0.95;0.80;;;12.00;99.90;;;;;;5053479;28;20047;-54
2024/03/04 12:10:47;;;;;;;1.30;0.90;;;12.10;99.90;;;;;;5053610;28;20090;-54
2024/03/04 12:13:12;;;;;;;3.35;1.23;;;12.20;99.90;;;;;;5053300;28;20021;-52
2024/03/04 12:15:39;;;;;;;3.72;1.23;;;12.20;99.90;;;;;;5053488;28;20054;-52
2024/03/04 12:18:04;;;;;;;2.15;0.90;;;12.10;99.90;;;;;;5053096;28;20021;-53
2024/03/04 12:20:30;;;;;;;2.30;0.80;;;11.90;99.90;;;;;;5053115;28;20036;-52
2024/03/04 12:22:56;;;;;;;4.32;0.85;;;12.00;99.90;;;;;;5053433;28;20079;-52
2024/03/04 12:25:26;;;;;;;1.10;1.00;;;11.80;99.90;;;;;;5053076;28;20024;-56
2024/03/04 12:27:54;;;;;;;3.15;1.00;;;11.90;99.90;;;;;;5052733;28;20035;-54
2024/03/04 12:30:22;;;;;;;5.78;0.80;;;12.00;99.90;;;;;;5052917;28;20029;-52
2024/03/04 12:32:51;;;;;;;;;;;12.00;99.90;;;;;;5053281;28;20536;-54
2024/03/04 12:35:29;;;;;;;3.97;1.00;;;12.10;99.90;;;;;;5052894;28;20285;-56
2024/03/04 12:37:57;;;;;;;1.20;1.10;;;12.30;99.90;;;;;;5052910;28;20067;-55
2024/03/04 12:40:24;;;;;;;4.70;0.85;;;12.50;99.90;;;;;;5053120;28;20025;-56
2024/03/04 12:42:58;;;;;;;8.57;2.72;;;12.60;99.90;;;;;;5052704;28;20040;-54
2024/03/04 12:45:25;;;;;;;3.15;1.15;;;12.70;99.90;;;;;;5051447;28;20021;-53
2024/03/04 12:47:58;;;;;;;1.58;1.33;;;12.70;99.90;;;;;;5052791;28;20473;-55
2024/03/04 12:50:25;;;;;;;1.15;1.05;;;12.60;99.90;;;;;;5052633;28;20059;-56
2024/03/04 12:52:51;;;;;;;1.17;1.00;;;12.70;99.90;;;;;;5052939;28;20025;-54